Boonsboro, MD

12:49 PM EDT on April 28, 2015 (GMT -0400)
Eastern W Va Regional-Shepherd | | Change Station
CLOSE
Current Station
Airport
Location: Martinsburg,
Elevation: 531 ft
Nearby Weather Stations

Elev 531 ft 39.40 °N, 77.98 °W | Updated 56 minutes ago

Clear
Clear
62 °F
Feels Like 62 °F
N
13
Wind Variable Wind from NW
Gusts 23 mph

Today
High -- | Low -- °F
--% Chance of Precip.
Yesterday
High -- | Low -- °F
Precip. -- in
6:15 AM 8:01 PM
Waxing Gibbous, 75% visible
Pressure 29.95 in
Visibility 10.0 miles
Clouds Clear
Dew Point 39 °F
Humidity 43%
Rainfall 0.00 in
Snow Depth Not available.
UV 10 out of 12
Pollen 10.60 out of 12
Air Quality Not available.
Flu Activity Regional
METAR KMRB 281553Z 32011G20KT 10SM CLR 17/04 A2995 RMK AO2 SLP142 T01670039

More Conditions Fewer Conditions

Pressure 29.95 in
Visibility 10.0 miles
Clouds Clear
Dew Point 39 °F
Humidity 43%
Rainfall 0.00 in
Snow Depth Not available.
UV 10 out of 12
Pollen 10.60 out of 12
Air Quality Not available.
Flu Activity Regional
METAR KMRB 281553Z 32011G20KT 10SM CLR 17/04 A2995 RMK AO2 SLP142 T01670039

More Conditions Fewer Conditions

10-Day Weather Forecast

Almanac

Astronomy

Apr. 28, 2015 Rise Set
Actual Time
Civil Twilight
Nautical Twilight
Astronomical Twilight
Moon
Length of Visible Light
Length of Day
Tomorrow will be .
, % of the Moon is Illuminated

Today's Extremes

State Highs State Lows

Community

WunderPhotos

Upload Photos

1,817,699 photos uploaded!

WunderBlogs® & News

Nearby

Air Quality

  Air Quality AQ Index Pollutant
Not available.

Snow Depth

Station Depth Elevation

Earthquake Activity

City Distance Mag. Time & Date
Minimum magnitude displayed is 2.5.

Coastal Water Temperatures

Place Temperature

Stations

Nearby Weather Stations

Station Location Temp. Windchill Dew Point Humidity Wind Precip. Elev Updated Type